createdAt,value
2017-12-10T00:00:38.028Z,1.30
2017-12-10T00:03:06.153Z,1.30
2017-12-10T00:05:34.293Z,1.30
2017-12-10T00:08:02.418Z,1.30
2017-12-10T00:10:30.527Z,1.30
2017-12-10T00:12:58.656Z,1.20
2017-12-10T00:15:26.819Z,1.20
2017-12-10T00:17:54.992Z,1.10
2017-12-10T00:20:23.100Z,1.10
2017-12-10T00:22:51.989Z,1.20
2017-12-10T00:25:20.146Z,1.20
2017-12-10T00:27:49.032Z,1.20
2017-12-10T00:30:17.158Z,1.10
2017-12-10T00:32:45.276Z,1.20
2017-12-10T00:35:13.416Z,1.20
2017-12-10T00:37:41.542Z,1.20
2017-12-10T00:40:10.452Z,1.10
2017-12-10T00:42:39.341Z,1.10
2017-12-10T00:45:08.252Z,1.20
2017-12-10T00:47:36.379Z,1.10
2017-12-10T00:50:04.524Z,1.20
2017-12-10T00:52:33.421Z,1.10
2017-12-10T00:55:02.312Z,1.20
2017-12-10T00:57:31.192Z,1.20
2017-12-10T00:59:59.330Z,1.20
2017-12-10T01:02:27.722Z,1.10
2017-12-10T01:04:56.609Z,1.10
2017-12-10T01:07:25.487Z,1.00
2017-12-10T01:09:53.644Z,1.00
2017-12-10T01:12:21.760Z,1.00
2017-12-10T01:14:49.904Z,1.00
2017-12-10T01:17:18.022Z,1.10
2017-12-10T01:19:46.153Z,1.10
2017-12-10T01:22:14.285Z,1.10
2017-12-10T01:24:42.412Z,1.00
2017-12-10T01:27:11.320Z,1.00
2017-12-10T01:29:39.447Z,1.00
2017-12-10T01:32:07.623Z,1.00
2017-12-10T01:34:35.730Z,1.10
2017-12-10T01:37:03.926Z,1.00
2017-12-10T01:39:31.983Z,1.00
2017-12-10T01:42:00.879Z,1.10
2017-12-10T01:44:28.995Z,1.10
2017-12-10T01:46:57.142Z,1.10
2017-12-10T01:49:25.280Z,1.10
2017-12-10T01:51:53.417Z,1.20
2017-12-10T01:54:21.542Z,1.30
2017-12-10T01:56:51.205Z,1.10
2017-12-10T01:59:19.334Z,1.10
2017-12-10T02:01:48.248Z,1.00
2017-12-10T02:04:16.367Z,1.00
2017-12-10T02:06:45.261Z,1.10
2017-12-10T02:09:14.170Z,1.10
2017-12-10T02:11:43.075Z,1.10
2017-12-10T02:14:11.970Z,1.10
2017-12-10T02:16:40.880Z,1.00
2017-12-10T02:19:09.789Z,0.90
2017-12-10T02:21:38.686Z,0.90
2017-12-10T02:24:07.589Z,1.00
2017-12-10T02:26:36.497Z,0.90
2017-12-10T02:29:05.384Z,0.80
2017-12-10T02:31:33.553Z,0.80
2017-12-10T02:34:01.690Z,0.90
2017-12-10T02:36:30.577Z,0.80
2017-12-10T02:38:59.473Z,0.70
2017-12-10T02:41:28.370Z,0.60
2017-12-10T02:43:56.493Z,0.60
2017-12-10T02:46:24.662Z,0.70
2017-12-10T02:48:53.549Z,0.80
2017-12-10T02:51:21.673Z,0.80
2017-12-10T02:53:49.816Z,0.80
2017-12-10T02:56:17.940Z,0.70
2017-12-10T02:58:46.150Z,0.70
2017-12-10T03:01:15.036Z,0.80
2017-12-10T03:03:43.164Z,0.70
2017-12-10T03:06:11.302Z,0.70
2017-12-10T03:08:39.425Z,0.80
2017-12-10T03:11:08.696Z,0.80
2017-12-10T03:13:37.560Z,0.80
2017-12-10T03:16:05.690Z,0.80
2017-12-10T03:18:33.849Z,0.70
2017-12-10T03:21:02.749Z,0.60
2017-12-10T03:23:31.629Z,0.80
2017-12-10T03:25:59.775Z,0.70
2017-12-10T03:28:27.923Z,0.70
2017-12-10T03:30:56.038Z,0.80
2017-12-10T03:33:24.174Z,0.90
2017-12-10T03:35:52.321Z,0.90
2017-12-10T03:38:20.455Z,1.00
2017-12-10T03:40:48.578Z,1.00
2017-12-10T03:43:16.684Z,1.00
2017-12-10T03:45:44.867Z,1.10
2017-12-10T03:48:13.006Z,1.10
2017-12-10T03:50:41.137Z,1.10
2017-12-10T03:53:09.253Z,1.10
2017-12-10T03:55:37.396Z,1.10
2017-12-10T03:58:05.533Z,1.10
2017-12-10T04:00:33.677Z,1.20
2017-12-10T04:03:01.819Z,1.20
2017-12-10T04:05:30.706Z,1.20
2017-12-10T04:07:59.604Z,1.20
2017-12-10T04:10:27.736Z,1.20
2017-12-10T04:12:55.871Z,1.20
2017-12-10T04:15:23.999Z,1.20
2017-12-10T04:17:52.911Z,1.20
2017-12-10T04:20:22.661Z,1.30
2017-12-10T04:22:50.795Z,1.20
2017-12-10T04:25:18.946Z,1.20
2017-12-10T04:27:48.640Z,1.00
2017-12-10T04:30:16.770Z,1.00
2017-12-10T04:32:44.892Z,1.00
2017-12-10T04:35:13.805Z,0.90
2017-12-10T04:37:41.943Z,0.90
2017-12-10T04:40:10.085Z,1.00
2017-12-10T04:42:38.213Z,1.00
2017-12-10T04:45:06.328Z,1.10
2017-12-10T04:47:35.216Z,1.40
2017-12-10T04:50:03.354Z,1.40
2017-12-10T04:52:31.501Z,1.50
2017-12-10T04:55:00.397Z,1.60
2017-12-10T04:57:29.288Z,1.40
2017-12-10T04:59:58.218Z,1.40
2017-12-10T05:02:27.105Z,1.30
2017-12-10T05:04:55.236Z,1.30
2017-12-10T05:07:23.381Z,1.40
2017-12-10T05:09:51.524Z,1.50
2017-12-10T05:12:19.652Z,1.50
2017-12-10T05:14:48.572Z,1.50
2017-12-10T05:17:16.692Z,1.50
2017-12-10T05:19:44.821Z,1.60
2017-12-10T05:22:14.469Z,1.50
2017-12-10T05:24:43.356Z,1.60
2017-12-10T05:27:12.263Z,1.60
2017-12-10T05:29:41.162Z,1.60
2017-12-10T05:32:10.123Z,1.60
2017-12-10T05:34:38.240Z,1.60
2017-12-10T05:37:06.369Z,1.70
2017-12-10T05:39:34.515Z,1.70
2017-12-10T05:42:03.585Z,1.60
2017-12-10T05:44:31.704Z,1.50
2017-12-10T05:46:59.855Z,1.30
2017-12-10T05:49:27.985Z,1.40
2017-12-10T05:51:56.114Z,1.20
2017-12-10T05:54:25.018Z,1.30
2017-12-10T05:56:53.149Z,1.30
2017-12-10T05:59:21.293Z,1.10
2017-12-10T06:01:49.430Z,1.30
2017-12-10T06:04:17.578Z,1.20
2017-12-10T06:06:45.706Z,1.10
2017-12-10T06:09:14.635Z,1.00
2017-12-10T06:11:43.525Z,0.90
2017-12-10T06:14:11.693Z,0.90
2017-12-10T06:16:39.827Z,1.00
2017-12-10T06:19:08.103Z,1.10
2017-12-10T06:21:36.230Z,1.00
2017-12-10T06:24:04.374Z,0.90
2017-12-10T06:26:32.518Z,0.90
2017-12-10T06:29:01.447Z,0.90
2017-12-10T06:31:30.358Z,1.30
2017-12-10T06:33:59.246Z,1.20
2017-12-10T06:36:28.161Z,1.20
2017-12-10T06:38:57.059Z,1.20
2017-12-10T06:41:25.986Z,1.10
2017-12-10T06:43:54.116Z,1.10
2017-12-10T06:46:22.274Z,1.20
2017-12-10T06:48:50.857Z,1.30
2017-12-10T06:51:18.989Z,1.40
2017-12-10T06:53:47.122Z,1.40
2017-12-10T06:56:16.128Z,1.40
2017-12-10T06:58:45.007Z,1.10
2017-12-10T07:01:13.908Z,1.00
2017-12-10T07:03:43.713Z,0.80
2017-12-10T07:06:11.832Z,0.80
2017-12-10T07:08:39.972Z,0.70
2017-12-10T07:11:08.092Z,0.50
2017-12-10T07:13:37.033Z,0.50
2017-12-10T07:16:05.164Z,0.50
2017-12-10T07:18:33.877Z,0.60
2017-12-10T07:21:01.994Z,0.50
2017-12-10T07:23:30.142Z,0.40
2017-12-10T07:25:58.280Z,0.80
2017-12-10T07:28:26.415Z,0.60
2017-12-10T07:30:54.546Z,0.90
2017-12-10T07:33:22.711Z,1.10
2017-12-10T07:35:51.611Z,0.70
2017-12-10T07:38:20.525Z,0.60
2017-12-10T07:40:48.645Z,0.60
2017-12-10T07:43:16.785Z,0.70
2017-12-10T07:45:45.690Z,0.80
2017-12-10T07:48:14.600Z,0.90
2017-12-10T07:50:42.740Z,0.90
2017-12-10T07:53:12.385Z,1.30
2017-12-10T07:55:41.311Z,1.20
2017-12-10T07:58:09.457Z,1.10
2017-12-10T08:00:39.134Z,1.20
2017-12-10T08:03:07.258Z,1.20
2017-12-10T08:05:35.408Z,1.40
2017-12-10T08:08:03.536Z,1.40
2017-12-10T08:10:31.697Z,1.60
2017-12-10T08:12:59.863Z,1.70
2017-12-10T08:15:28.756Z,1.80
2017-12-10T08:17:56.895Z,1.80
2017-12-10T08:20:25.013Z,1.60
2017-12-10T08:22:53.951Z,1.70
2017-12-10T08:25:22.102Z,1.70
2017-12-10T08:27:50.985Z,1.60
2017-12-10T08:30:21.196Z,1.50
2017-12-10T08:32:49.636Z,1.60
2017-12-10T08:35:18.547Z,1.60
2017-12-10T08:37:47.463Z,1.80
2017-12-10T08:40:15.591Z,1.80
2017-12-10T08:42:43.746Z,1.80
2017-12-10T08:45:11.886Z,1.80
2017-12-10T08:47:40.046Z,1.80
2017-12-10T08:50:08.186Z,1.90
2017-12-10T08:52:36.329Z,1.90
2017-12-10T08:55:06.006Z,2.10
2017-12-10T08:57:34.155Z,2.10
2017-12-10T09:00:02.287Z,2.10
2017-12-10T09:02:30.417Z,2.20
2017-12-10T09:04:58.554Z,2.10
2017-12-10T09:07:28.045Z,2.20
2017-12-10T09:09:56.958Z,2.20
2017-12-10T09:12:25.876Z,2.30
2017-12-10T09:14:54.164Z,2.30
2017-12-10T09:17:22.343Z,2.30
2017-12-10T09:19:50.488Z,2.20
2017-12-10T09:22:19.939Z,2.10
2017-12-10T09:24:48.826Z,1.90
2017-12-10T09:27:17.736Z,1.90
2017-12-10T09:29:46.648Z,1.90
2017-12-10T09:32:15.550Z,2.00
2017-12-10T09:34:44.433Z,2.10
2017-12-10T09:37:13.353Z,2.20
2017-12-10T09:39:41.517Z,2.20
2017-12-10T09:42:09.643Z,2.20
2017-12-10T09:44:37.791Z,2.20
2017-12-10T09:47:05.914Z,2.20
2017-12-10T09:49:34.142Z,2.30
2017-12-10T09:52:02.314Z,2.20
2017-12-10T09:54:30.457Z,2.20
2017-12-10T09:56:58.632Z,2.20
2017-12-10T09:59:26.766Z,2.00
2017-12-10T10:01:54.942Z,1.80
2017-12-10T10:04:23.068Z,1.70
2017-12-10T10:06:52.822Z,1.40
2017-12-10T10:09:21.713Z,1.20
2017-12-10T10:11:50.635Z,1.10
2017-12-10T10:14:19.568Z,1.00
2017-12-10T10:16:47.682Z,1.00
2017-12-10T10:19:16.634Z,0.90
2017-12-10T10:21:45.548Z,0.70
2017-12-10T10:24:13.697Z,0.60
2017-12-10T10:26:41.858Z,0.60
2017-12-10T10:29:10.001Z,0.50
2017-12-10T10:31:39.527Z,0.50
2017-12-10T10:34:07.672Z,0.50
2017-12-10T10:36:36.621Z,0.50
2017-12-10T10:39:05.410Z,0.50
2017-12-10T10:41:34.289Z,0.50
2017-12-10T10:44:03.214Z,0.50
2017-12-10T10:46:32.116Z,0.50
2017-12-10T10:49:01.020Z,0.50
2017-12-10T10:51:29.174Z,0.40
2017-12-10T10:53:57.302Z,0.40
2017-12-10T10:56:25.453Z,0.40
2017-12-10T10:58:54.378Z,0.50
2017-12-10T11:01:22.530Z,0.50
2017-12-10T11:03:50.680Z,0.50
2017-12-10T11:06:18.874Z,0.40
2017-12-10T11:08:47.022Z,0.60
2017-12-10T11:11:15.926Z,0.60
2017-12-10T11:13:44.814Z,0.60
2017-12-10T11:16:13.737Z,0.50
2017-12-10T11:18:41.865Z,0.50
2017-12-10T11:21:10.009Z,0.50
2017-12-10T11:23:38.931Z,0.50
2017-12-10T11:26:07.320Z,0.50
2017-12-10T11:28:35.487Z,0.40
2017-12-10T11:31:04.372Z,0.40
2017-12-10T11:33:33.283Z,0.40
2017-12-10T11:36:02.176Z,0.50
2017-12-10T11:38:30.354Z,0.40
2017-12-10T11:40:58.518Z,0.50
2017-12-10T11:43:26.739Z,0.40
2017-12-10T11:45:54.887Z,0.40
2017-12-10T11:48:23.054Z,0.40
2017-12-10T11:50:51.189Z,0.50
2017-12-10T11:53:19.334Z,0.50
2017-12-10T11:55:47.479Z,0.60
2017-12-10T11:58:16.413Z,0.50
2017-12-10T12:00:44.557Z,0.40
2017-12-10T12:03:12.743Z,0.40
2017-12-10T12:05:40.878Z,0.40
2017-12-10T12:08:09.031Z,0.50
2017-12-10T12:10:37.929Z,0.50
2017-12-10T12:13:06.838Z,0.50
2017-12-10T12:15:35.758Z,0.60
2017-12-10T12:18:03.887Z,0.60
2017-12-10T12:20:32.815Z,0.60
2017-12-10T12:23:00.982Z,0.60
2017-12-10T12:25:29.126Z,0.70
2017-12-10T12:27:57.287Z,0.70
2017-12-10T12:30:26.213Z,0.70
2017-12-10T12:32:54.356Z,0.70
2017-12-10T12:35:23.235Z,0.80
2017-12-10T12:37:51.386Z,0.80
2017-12-10T12:40:20.334Z,0.90
2017-12-10T12:42:49.052Z,0.90
2017-12-10T12:45:17.207Z,1.00
2017-12-10T12:47:45.396Z,1.10
2017-12-10T12:50:13.560Z,1.30
2017-12-10T12:52:41.701Z,1.30
2017-12-10T12:55:10.781Z,1.30
2017-12-10T12:57:38.917Z,1.50
2017-12-10T13:00:09.184Z,1.40
2017-12-10T13:02:37.309Z,1.50
2017-12-10T13:05:05.465Z,1.50
2017-12-10T13:07:33.624Z,1.50
2017-12-10T13:10:02.394Z,1.60
2017-12-10T13:12:30.562Z,1.60
2017-12-10T13:14:58.702Z,1.60
2017-12-10T13:17:26.874Z,1.60
2017-12-10T13:19:55.784Z,1.60
2017-12-10T13:22:24.686Z,1.70
2017-12-10T13:24:52.865Z,1.70
2017-12-10T13:27:21.793Z,1.70
2017-12-10T13:29:49.918Z,1.70
2017-12-10T13:32:18.843Z,1.80
2017-12-10T13:34:47.877Z,1.80
2017-12-10T13:37:16.044Z,1.80
2017-12-10T13:39:45.753Z,1.90
2017-12-10T13:42:13.896Z,1.90
2017-12-10T13:44:42.042Z,1.90
2017-12-10T13:47:10.981Z,1.90
2017-12-10T13:49:39.152Z,1.90
2017-12-10T13:52:08.066Z,1.80
2017-12-10T13:54:36.213Z,1.80
2017-12-10T13:57:04.389Z,1.70
2017-12-10T13:59:32.572Z,1.70
2017-12-10T14:02:00.741Z,1.70
2017-12-10T14:04:28.933Z,1.80
2017-12-10T14:06:57.083Z,1.60
2017-12-10T14:09:25.454Z,1.60
2017-12-10T14:11:54.381Z,1.60
2017-12-10T14:14:22.525Z,1.60
2017-12-10T14:16:51.429Z,1.50
2017-12-10T14:19:19.607Z,1.50
2017-12-10T14:21:47.778Z,1.70
2017-12-10T14:24:15.953Z,1.60
2017-12-10T14:26:45.683Z,1.60
2017-12-10T14:29:13.818Z,1.50
2017-12-10T14:31:42.006Z,1.70
2017-12-10T14:34:10.934Z,1.80
2017-12-10T14:36:39.139Z,1.80
2017-12-10T14:39:07.368Z,1.80
2017-12-10T14:41:35.499Z,1.70
2017-12-10T14:44:03.662Z,1.70
2017-12-10T14:46:31.805Z,1.80
2017-12-10T14:48:59.962Z,1.80
2017-12-10T14:51:28.145Z,1.90
2017-12-10T14:53:56.313Z,1.80
2017-12-10T14:56:24.446Z,1.80
2017-12-10T14:58:52.603Z,1.80
2017-12-10T15:01:20.747Z,1.80
2017-12-10T15:03:49.675Z,1.90
2017-12-10T15:06:17.839Z,1.90
2017-12-10T15:08:46.748Z,2.00
2017-12-10T15:11:14.908Z,1.90
2017-12-10T15:13:43.045Z,2.00
2017-12-10T15:16:11.219Z,2.00
2017-12-10T15:18:39.378Z,2.10
2017-12-10T15:21:07.510Z,2.10
2017-12-10T15:23:35.692Z,2.20
2017-12-10T15:26:03.875Z,2.30
2017-12-10T15:28:32.754Z,2.50
2017-12-10T15:31:01.677Z,2.50
2017-12-10T15:33:29.793Z,2.50
2017-12-10T15:35:57.958Z,2.60
2017-12-10T15:38:26.095Z,2.70
2017-12-10T15:40:54.255Z,2.60
2017-12-10T15:43:22.428Z,2.60
2017-12-10T15:45:50.589Z,2.80
2017-12-10T15:48:20.347Z,2.90
2017-12-10T15:50:48.514Z,2.90
2017-12-10T15:53:16.686Z,2.90
2017-12-10T15:55:45.659Z,3.00
2017-12-10T15:58:13.822Z,3.10
2017-12-10T16:00:42.016Z,3.10
2017-12-10T16:03:10.178Z,3.10
2017-12-10T16:05:38.331Z,3.30
2017-12-10T16:08:07.255Z,3.30
2017-12-10T16:10:35.407Z,3.20
2017-12-10T16:13:04.348Z,3.30
2017-12-10T16:15:32.478Z,3.30
2017-12-10T16:18:00.633Z,3.30
2017-12-10T16:20:28.769Z,3.30
2017-12-10T16:22:58.624Z,3.40
2017-12-10T16:25:26.755Z,3.40
2017-12-10T16:27:55.577Z,3.50
2017-12-10T16:30:24.480Z,3.50
2017-12-10T16:32:52.717Z,3.50
2017-12-10T16:35:21.789Z,3.60
2017-12-10T16:37:50.698Z,3.80
2017-12-10T16:40:18.837Z,3.80
2017-12-10T16:42:46.996Z,3.80
2017-12-10T16:45:15.242Z,3.70
2017-12-10T16:47:44.142Z,3.70
2017-12-10T16:50:13.109Z,3.90
2017-12-10T16:52:41.245Z,3.90
2017-12-10T16:55:10.162Z,4.00
2017-12-10T16:57:38.310Z,4.00
2017-12-10T17:00:06.485Z,4.10
2017-12-10T17:02:34.623Z,4.20
2017-12-10T17:05:02.762Z,4.20
2017-12-10T17:07:30.918Z,4.20
2017-12-10T17:09:59.082Z,4.30
2017-12-10T17:12:28.009Z,4.30
2017-12-10T17:14:56.212Z,4.30
2017-12-10T17:17:24.366Z,4.30
2017-12-10T17:19:52.522Z,4.20
2017-12-10T17:22:20.700Z,4.20
2017-12-10T17:24:48.827Z,4.20
2017-12-10T17:27:16.981Z,4.30
2017-12-10T17:29:47.384Z,4.50
2017-12-10T17:32:15.571Z,4.40
2017-12-10T17:34:43.701Z,4.60
2017-12-10T17:37:11.856Z,4.70
2017-12-10T17:39:40.947Z,4.60
2017-12-10T17:42:09.097Z,4.60
2017-12-10T17:44:37.253Z,4.60
2017-12-10T17:47:06.173Z,4.60
2017-12-10T17:49:34.294Z,4.60
2017-12-10T17:52:02.505Z,4.60
2017-12-10T17:54:30.633Z,4.70
2017-12-10T17:56:58.810Z,4.80
2017-12-10T17:59:27.736Z,5.00
2017-12-10T18:01:55.910Z,5.00
2017-12-10T18:04:24.806Z,5.30
2017-12-10T18:06:53.700Z,5.40
2017-12-10T18:09:21.868Z,5.50
2017-12-10T18:11:50.017Z,5.60
2017-12-10T18:14:18.179Z,5.70
2017-12-10T18:16:46.350Z,5.90
2017-12-10T18:19:14.518Z,6.00
2017-12-10T18:21:42.660Z,6.10
2017-12-10T18:24:11.596Z,6.20
2017-12-10T18:26:39.742Z,6.20
2017-12-10T18:29:07.897Z,6.20
2017-12-10T18:31:36.799Z,6.40
2017-12-10T18:34:05.721Z,6.50
2017-12-10T18:36:33.849Z,6.40
2017-12-10T18:39:02.000Z,6.50
2017-12-10T18:41:30.139Z,6.60
2017-12-10T18:43:58.285Z,6.70
2017-12-10T18:46:27.207Z,6.90
2017-12-10T18:48:55.367Z,6.90
2017-12-10T18:51:23.512Z,6.90
2017-12-10T18:53:51.637Z,7.10
2017-12-10T18:56:19.813Z,7.20
2017-12-10T18:58:47.961Z,7.20
2017-12-10T19:01:16.099Z,7.20
2017-12-10T19:03:44.245Z,7.30
2017-12-10T19:06:12.411Z,7.30
2017-12-10T19:08:40.520Z,7.40
2017-12-10T19:11:09.524Z,7.60
2017-12-10T19:13:37.633Z,7.50
2017-12-10T19:16:05.779Z,7.60
2017-12-10T19:18:33.940Z,7.70
2017-12-10T19:21:02.092Z,7.60
2017-12-10T19:23:30.276Z,7.70
2017-12-10T19:25:59.214Z,7.80
2017-12-10T19:28:27.392Z,7.80
2017-12-10T19:30:55.521Z,7.80
2017-12-10T19:33:23.692Z,8.00
2017-12-10T19:35:51.832Z,7.90
2017-12-10T19:38:20.960Z,7.80
2017-12-10T19:40:49.078Z,7.80
2017-12-10T19:43:17.229Z,7.90
2017-12-10T19:45:45.371Z,7.80
2017-12-10T19:48:13.543Z,7.80
2017-12-10T19:50:42.418Z,7.90
2017-12-10T19:53:11.347Z,7.90
2017-12-10T19:55:39.495Z,7.90
2017-12-10T19:58:07.650Z,7.90
2017-12-10T20:00:36.544Z,8.00
2017-12-10T20:03:05.470Z,7.90
2017-12-10T20:05:33.645Z,7.90
2017-12-10T20:08:01.809Z,8.00
2017-12-10T20:10:30.012Z,8.10
2017-12-10T20:12:58.978Z,8.20
2017-12-10T20:15:27.141Z,8.20
2017-12-10T20:17:55.315Z,8.20
2017-12-10T20:20:23.507Z,8.20
2017-12-10T20:22:52.380Z,8.20
2017-12-10T20:25:21.368Z,8.20
2017-12-10T20:27:50.291Z,8.20
2017-12-10T20:30:19.275Z,8.30
2017-12-10T20:32:47.414Z,8.30
2017-12-10T20:35:15.588Z,8.30
2017-12-10T20:37:43.752Z,8.40
2017-12-10T20:40:11.904Z,8.20
2017-12-10T20:42:40.056Z,8.20
2017-12-10T20:45:08.187Z,8.30
2017-12-10T20:47:36.362Z,8.30
2017-12-10T20:50:04.548Z,8.40
2017-12-10T20:52:32.703Z,8.40
2017-12-10T20:55:00.830Z,8.40
2017-12-10T20:57:28.991Z,8.40
2017-12-10T20:59:57.114Z,8.40
2017-12-10T21:02:25.274Z,8.40
2017-12-10T21:04:53.432Z,8.50
2017-12-10T21:07:21.556Z,8.50
2017-12-10T21:09:49.715Z,8.60
2017-12-10T21:12:17.838Z,8.70
2017-12-10T21:14:46.021Z,8.70
2017-12-10T21:17:14.947Z,8.80
2017-12-10T21:19:43.863Z,8.80
2017-12-10T21:22:12.779Z,8.90
2017-12-10T21:24:40.930Z,8.90
2017-12-10T21:27:09.838Z,8.90
2017-12-10T21:29:38.775Z,9.00
2017-12-10T21:32:06.902Z,9.00
2017-12-10T21:34:35.050Z,9.00
2017-12-10T21:37:03.186Z,8.90
2017-12-10T21:39:31.353Z,8.90
2017-12-10T21:41:59.477Z,9.00
2017-12-10T21:44:27.598Z,9.00
2017-12-10T21:46:55.724Z,9.00
2017-12-10T21:49:23.886Z,9.00
2017-12-10T21:51:52.009Z,9.00
2017-12-10T21:54:20.188Z,9.00
2017-12-10T21:56:48.855Z,9.00
2017-12-10T21:59:17.033Z,9.00
2017-12-10T22:01:45.161Z,9.00
2017-12-10T22:04:13.309Z,9.10
2017-12-10T22:06:41.451Z,9.00
2017-12-10T22:09:10.355Z,9.00
2017-12-10T22:11:39.265Z,9.00
2017-12-10T22:14:08.174Z,9.00
2017-12-10T22:16:36.322Z,9.00
2017-12-10T22:19:05.217Z,8.90
2017-12-10T22:21:33.367Z,8.90
2017-12-10T22:24:01.502Z,9.00
2017-12-10T22:26:31.161Z,9.00
2017-12-10T22:28:59.277Z,9.00
2017-12-10T22:31:27.419Z,9.00
2017-12-10T22:33:56.312Z,8.90
2017-12-10T22:36:25.237Z,8.80
2017-12-10T22:38:53.960Z,8.80
2017-12-10T22:41:22.868Z,8.50
2017-12-10T22:43:51.004Z,8.50
2017-12-10T22:46:19.156Z,8.40
2017-12-10T22:48:47.289Z,8.50
2017-12-10T22:51:16.186Z,8.30
2017-12-10T22:53:45.080Z,8.30
2017-12-10T22:56:14.016Z,8.20
2017-12-10T22:58:42.917Z,8.20
2017-12-10T23:01:11.051Z,8.20
2017-12-10T23:03:39.202Z,8.20
2017-12-10T23:06:07.325Z,8.10
2017-12-10T23:08:37.082Z,8.10
2017-12-10T23:11:06.001Z,8.00
2017-12-10T23:13:45.950Z,8.00
2017-12-10T23:16:31.854Z,8.00
2017-12-10T23:19:00.780Z,7.90
2017-12-10T23:21:29.834Z,7.90
2017-12-10T23:23:58.053Z,7.90
2017-12-10T23:26:26.931Z,7.80
2017-12-10T23:28:55.058Z,7.80
2017-12-10T23:31:24.153Z,7.70
2017-12-10T23:33:52.829Z,7.70
2017-12-10T23:36:21.885Z,7.70
2017-12-10T23:38:50.033Z,7.70
2017-12-10T23:41:18.941Z,7.70
2017-12-10T23:43:47.867Z,7.70
2017-12-10T23:46:15.994Z,7.70
2017-12-10T23:48:44.130Z,7.60
2017-12-10T23:51:12.282Z,7.60
2017-12-10T23:53:40.400Z,7.50
2017-12-10T23:56:08.536Z,7.60
2017-12-10T23:58:36.704Z,7.60
